sensor_id;sensor_type;location;lat;lon;timestamp;pressure;altitude;pressure_sealevel;temperature;humidity
62710;BME280;48770;51.624;5.886;2024-03-22T00:01:45;102011.84;;;21.94;45.31
62710;BME280;48770;51.624;5.886;2024-03-22T00:04:11;102003.34;;;21.90;45.50
62710;BME280;48770;51.624;5.886;2024-03-22T00:06:37;102001.53;;;21.85;45.57
62710;BME280;48770;51.624;5.886;2024-03-22T00:09:03;101999.88;;;21.84;46.01
62710;BME280;48770;51.624;5.886;2024-03-22T00:11:28;101996.28;;;21.84;45.80
62710;BME280;48770;51.624;5.886;2024-03-22T00:13:53;101985.50;;;21.82;45.52
62710;BME280;48770;51.624;5.886;2024-03-22T00:16:19;101991.88;;;21.83;45.56
62710;BME280;48770;51.624;5.886;2024-03-22T00:18:44;101988.94;;;21.79;46.00
62710;BME280;48770;51.624;5.886;2024-03-22T00:21:09;101977.31;;;21.77;46.02
62710;BME280;48770;51.624;5.886;2024-03-22T00:23:35;101984.84;;;21.77;45.77
62710;BME280;48770;51.624;5.886;2024-03-22T00:26:00;101986.81;;;21.76;45.84
62710;BME280;48770;51.624;5.886;2024-03-22T00:28:26;101980.75;;;21.74;45.64
62710;BME280;48770;51.624;5.886;2024-03-22T00:30:51;101981.44;;;21.71;45.89
62710;BME280;48770;51.624;5.886;2024-03-22T00:33:16;101978.50;;;21.68;46.15
62710;BME280;48770;51.624;5.886;2024-03-22T00:35:42;101982.59;;;21.70;45.72
62710;BME280;48770;51.624;5.886;2024-03-22T00:38:07;101981.28;;;21.68;45.79
62710;BME280;48770;51.624;5.886;2024-03-22T00:40:33;101971.28;;;21.67;46.02
62710;BME280;48770;51.624;5.886;2024-03-22T00:42:58;101964.09;;;21.66;45.90
62710;BME280;48770;51.624;5.886;2024-03-22T00:45:23;101948.88;;;21.63;46.03
62710;BME280;48770;51.624;5.886;2024-03-22T00:47:49;101958.38;;;21.62;45.91
62710;BME280;48770;51.624;5.886;2024-03-22T00:50:14;101943.97;;;21.60;46.19
62710;BME280;48770;51.624;5.886;2024-03-22T00:52:39;101942.00;;;21.61;46.00
62710;BME280;48770;51.624;5.886;2024-03-22T00:55:05;101947.56;;;21.61;45.69
62710;BME280;48770;51.624;5.886;2024-03-22T00:57:30;101936.75;;;21.59;46.16
62710;BME280;48770;51.624;5.886;2024-03-22T00:59:56;101925.63;;;21.59;45.79
62710;BME280;48770;51.624;5.886;2024-03-22T01:02:21;101926.28;;;21.56;46.38
62710;BME280;48770;51.624;5.886;2024-03-22T01:04:47;101919.91;;;21.55;46.21
62710;BME280;48770;51.624;5.886;2024-03-22T01:07:13;101909.91;;;21.54;46.16
62710;BME280;48770;51.624;5.886;2024-03-22T01:09:38;101897.47;;;21.52;46.22
62710;BME280;48770;51.624;5.886;2024-03-22T01:12:04;101896.34;;;21.53;46.14
62710;BME280;48770;51.624;5.886;2024-03-22T01:14:30;101899.78;;;21.50;45.92
62710;BME280;48770;51.624;5.886;2024-03-22T01:16:55;101886.34;;;21.52;46.04
62710;BME280;48770;51.624;5.886;2024-03-22T01:19:21;101887.50;;;21.51;46.37
62710;BME280;48770;51.624;5.886;2024-03-22T01:21:46;101885.88;;;21.50;45.89
62710;BME280;48770;51.624;5.886;2024-03-22T01:24:11;101877.53;;;21.50;46.37
62710;BME280;48770;51.624;5.886;2024-03-22T01:26:37;101870.31;;;21.49;45.95
62710;BME280;48770;51.624;5.886;2024-03-22T01:29:02;101877.53;;;21.50;46.24
62710;BME280;48770;51.624;5.886;2024-03-22T01:31:27;101880.47;;;21.45;46.32
62710;BME280;48770;51.624;5.886;2024-03-22T01:33:53;101888.00;;;21.44;46.02
62710;BME280;48770;51.624;5.886;2024-03-22T01:36:18;101878.84;;;21.44;46.04
62710;BME280;48770;51.624;5.886;2024-03-22T01:38:43;101886.38;;;21.43;46.25
62710;BME280;48770;51.624;5.886;2024-03-22T01:41:09;101873.28;;;21.44;46.04
62710;BME280;48770;51.624;5.886;2024-03-22T01:43:34;101876.06;;;21.44;46.13
62710;BME280;48770;51.624;5.886;2024-03-22T01:46:00;101864.47;;;21.42;46.28
62710;BME280;48770;51.624;5.886;2024-03-22T01:48:25;101858.88;;;21.42;46.27
62710;BME280;48770;51.624;5.886;2024-03-22T01:50:50;101855.28;;;21.41;45.96
62710;BME280;48770;51.624;5.886;2024-03-22T01:53:16;101850.88;;;21.40;46.20
62710;BME280;48770;51.624;5.886;2024-03-22T01:55:42;101846.78;;;21.38;46.10
62710;BME280;48770;51.624;5.886;2024-03-22T01:58:08;101843.53;;;21.36;46.38
62710;BME280;48770;51.624;5.886;2024-03-22T02:00:33;101849.91;;;21.36;46.06
62710;BME280;48770;51.624;5.886;2024-03-22T02:02:59;101842.38;;;21.37;45.91
62710;BME280;48770;51.624;5.886;2024-03-22T02:05:24;101843.53;;;21.36;46.32
62710;BME280;48770;51.624;5.886;2024-03-22T02:07:49;101841.91;;;21.35;46.25
62710;BME280;48770;51.624;5.886;2024-03-22T02:10:17;101845.50;;;21.35;46.06
62710;BME280;48770;51.624;5.886;2024-03-22T02:12:43;101848.59;;;21.34;46.41
62710;BME280;48770;51.624;5.886;2024-03-22T02:15:08;101845.81;;;21.34;46.41
62710;BME280;48770;51.624;5.886;2024-03-22T02:17:35;101851.69;;;21.32;46.13
62710;BME280;48770;51.624;5.886;2024-03-22T02:20:01;101843.34;;;21.32;46.24
62710;BME280;48770;51.624;5.886;2024-03-22T02:22:27;101834.53;;;21.30;46.33
62710;BME280;48770;51.624;5.886;2024-03-22T02:24:53;101830.94;;;21.30;46.43
62710;BME280;48770;51.624;5.886;2024-03-22T02:27:19;101824.22;;;21.31;46.29
62710;BME280;48770;51.624;5.886;2024-03-22T02:29:44;101824.88;;;21.28;46.54
62710;BME280;48770;51.624;5.886;2024-03-22T02:32:10;101818.00;;;21.25;46.40
62710;BME280;48770;51.624;5.886;2024-03-22T02:34:35;101828.00;;;21.26;46.39
62710;BME280;48770;51.624;5.886;2024-03-22T02:37:01;101828.81;;;21.27;46.42
62710;BME280;48770;51.624;5.886;2024-03-22T02:39:26;101828.47;;;21.28;46.46
62710;BME280;48770;51.624;5.886;2024-03-22T02:41:51;101817.69;;;21.27;46.04
62710;BME280;48770;51.624;5.886;2024-03-22T02:44:17;101816.88;;;21.26;46.42
62710;BME280;48770;51.624;5.886;2024-03-22T02:46:42;101817.19;;;21.24;46.60
62710;BME280;48770;51.624;5.886;2024-03-22T02:49:07;101817.19;;;21.24;46.24
62710;BME280;48770;51.624;5.886;2024-03-22T02:51:33;101808.84;;;21.24;46.16
62710;BME280;48770;51.624;5.886;2024-03-22T02:53:58;101799.38;;;21.26;46.13
62710;BME280;48770;51.624;5.886;2024-03-22T02:56:23;101798.03;;;21.23;46.39
62710;BME280;48770;51.624;5.886;2024-03-22T02:58:49;101787.75;;;21.23;46.03
62710;BME280;48770;51.624;5.886;2024-03-22T03:01:15;101782.50;;;21.22;46.53
62710;BME280;48770;51.624;5.886;2024-03-22T03:03:40;101776.94;;;21.22;46.30
62710;BME280;48770;51.624;5.886;2024-03-22T03:06:05;101776.13;;;21.21;46.51
62710;BME280;48770;51.624;5.886;2024-03-22T03:08:31;101775.28;;;21.21;46.44
62710;BME280;48770;51.624;5.886;2024-03-22T03:10:56;101761.41;;;21.21;46.20
62710;BME280;48770;51.624;5.886;2024-03-22T03:13:21;101764.19;;;21.21;46.34
62710;BME280;48770;51.624;5.886;2024-03-22T03:15:47;101765.66;;;21.18;46.22
62710;BME280;48770;51.624;5.886;2024-03-22T03:18:12;101767.28;;;21.19;46.35
62710;BME280;48770;51.624;5.886;2024-03-22T03:20:37;101763.34;;;21.20;46.46
62710;BME280;48770;51.624;5.886;2024-03-22T03:23:03;101756.16;;;21.19;46.42
62710;BME280;48770;51.624;5.886;2024-03-22T03:25:28;101738.66;;;21.19;46.54
62710;BME280;48770;51.624;5.886;2024-03-22T03:27:54;101738.19;;;21.17;46.43
62710;BME280;48770;51.624;5.886;2024-03-22T03:30:19;101732.28;;;21.18;46.16
62710;BME280;48770;51.624;5.886;2024-03-22T03:32:44;101737.38;;;21.16;46.58
62710;BME280;48770;51.624;5.886;2024-03-22T03:35:10;101738.50;;;21.15;46.28
62710;BME280;48770;51.624;5.886;2024-03-22T03:37:35;101724.59;;;21.15;46.19
62710;BME280;48770;51.624;5.886;2024-03-22T03:40:00;101721.00;;;21.15;46.18
62710;BME280;48770;51.624;5.886;2024-03-22T03:42:26;101708.41;;;21.17;46.28
62710;BME280;48770;51.624;5.886;2024-03-22T03:44:51;101707.91;;;21.15;46.48
62710;BME280;48770;51.624;5.886;2024-03-22T03:47:17;101708.25;;;21.14;46.31
62710;BME280;48770;51.624;5.886;2024-03-22T03:49:42;101713.81;;;21.14;46.29
62710;BME280;48770;51.624;5.886;2024-03-22T03:52:09;101709.88;;;21.15;46.32
62710;BME280;48770;51.624;5.886;2024-03-22T03:54:35;101714.63;;;21.14;46.57
62710;BME280;48770;51.624;5.886;2024-03-22T03:57:00;101715.78;;;21.13;46.30
62710;BME280;48770;51.624;5.886;2024-03-22T03:59:25;101707.78;;;21.12;46.36
62710;BME280;48770;51.624;5.886;2024-03-22T04:01:51;101705.81;;;21.12;46.42
62710;BME280;48770;51.624;5.886;2024-03-22T04:04:16;101697.00;;;21.10;46.47
62710;BME280;48770;51.624;5.886;2024-03-22T04:06:43;101693.06;;;21.11;46.31
62710;BME280;48770;51.624;5.886;2024-03-22T04:09:09;101696.66;;;21.12;46.45
62710;BME280;48770;51.624;5.886;2024-03-22T04:11:34;101694.53;;;21.09;46.54
62710;BME280;48770;51.624;5.886;2024-03-22T04:14:00;101689.47;;;21.11;46.37
62710;BME280;48770;51.624;5.886;2024-03-22T04:16:25;101694.69;;;21.12;46.14
62710;BME280;48770;51.624;5.886;2024-03-22T04:18:50;101695.34;;;21.09;46.21
62710;BME280;48770;51.624;5.886;2024-03-22T04:21:16;101692.88;;;21.08;46.45
62710;BME280;48770;51.624;5.886;2024-03-22T04:23:42;101692.88;;;21.08;46.35
62710;BME280;48770;51.624;5.886;2024-03-22T04:26:07;101689.78;;;21.09;46.14
62710;BME280;48770;51.624;5.886;2024-03-22T04:28:33;101685.06;;;21.10;46.61
62710;BME280;48770;51.624;5.886;2024-03-22T04:31:00;101689.78;;;21.09;46.34
62710;BME280;48770;51.624;5.886;2024-03-22T04:33:27;101688.97;;;21.09;46.49
62710;BME280;48770;51.624;5.886;2024-03-22T04:35:56;101688.97;;;21.09;46.55
62710;BME280;48770;51.624;5.886;2024-03-22T04:38:22;101685.38;;;21.08;46.58
62710;BME280;48770;51.624;5.886;2024-03-22T04:40:47;101673.75;;;21.06;46.38
62710;BME280;48770;51.624;5.886;2024-03-22T04:43:14;101675.38;;;21.07;46.41
62710;BME280;48770;51.624;5.886;2024-03-22T04:45:42;101677.69;;;21.05;46.24
62710;BME280;48770;51.624;5.886;2024-03-22T04:48:07;101687.19;;;21.04;46.47
62710;BME280;48770;51.624;5.886;2024-03-22T04:50:32;101687.66;;;21.06;46.09
62710;BME280;48770;51.624;5.886;2024-03-22T04:52:58;101685.69;;;21.07;46.43
62710;BME280;48770;51.624;5.886;2024-03-22T04:55:23;101690.44;;;21.06;46.54
62710;BME280;48770;51.624;5.886;2024-03-22T04:57:49;101688.81;;;21.05;46.50
62710;BME280;48770;51.624;5.886;2024-03-22T05:00:15;101683.25;;;21.05;46.58
62710;BME280;48770;51.624;5.886;2024-03-22T05:02:40;101672.13;;;21.05;46.25
62710;BME280;48770;51.624;5.886;2024-03-22T05:05:06;101670.50;;;21.04;46.25
62710;BME280;48770;51.624;5.886;2024-03-22T05:07:33;101671.66;;;21.03;46.37
62710;BME280;48770;51.624;5.886;2024-03-22T05:09:58;101665.75;;;21.05;46.47
62710;BME280;48770;51.624;5.886;2024-03-22T05:12:24;101667.72;;;21.04;46.36
62710;BME280;48770;51.624;5.886;2024-03-22T05:14:49;101654.47;;;21.01;46.50
62710;BME280;48770;51.624;5.886;2024-03-22T05:17:14;101656.09;;;21.02;46.39
62710;BME280;48770;51.624;5.886;2024-03-22T05:19:39;101658.88;;;21.02;46.42
62710;BME280;48770;51.624;5.886;2024-03-22T05:22:05;101656.94;;;21.03;46.42
62710;BME280;48770;51.624;5.886;2024-03-22T05:24:31;101658.41;;;21.00;46.54
62710;BME280;48770;51.624;5.886;2024-03-22T05:26:56;101657.25;;;21.01;46.26
62710;BME280;48770;51.624;5.886;2024-03-22T05:29:22;101659.22;;;21.01;46.44
62710;BME280;48770;51.624;5.886;2024-03-22T05:31:49;101653.66;;;21.01;46.03
62710;BME280;48770;51.624;5.886;2024-03-22T05:34:16;101652.84;;;21.00;46.27
62710;BME280;48770;51.624;5.886;2024-03-22T05:36:42;101649.59;;;20.98;46.33
62710;BME280;48770;51.624;5.886;2024-03-22T05:39:07;101652.03;;;21.00;46.28
62710;BME280;48770;51.624;5.886;2024-03-22T05:41:33;101649.59;;;20.98;46.26
62710;BME280;48770;51.624;5.886;2024-03-22T05:43:58;101645.66;;;20.99;46.19
62710;BME280;48770;51.624;5.886;2024-03-22T05:46:23;101651.22;;;20.99;46.32
62710;BME280;48770;51.624;5.886;2024-03-22T05:48:49;101655.97;;;20.99;46.08
62710;BME280;48770;51.624;5.886;2024-03-22T05:51:16;101649.59;;;20.98;46.17
62710;BME280;48770;51.624;5.886;2024-03-22T05:53:41;101642.41;;;20.97;46.32
62710;BME280;48770;51.624;5.886;2024-03-22T05:56:07;101644.03;;;20.98;46.11
62710;BME280;48770;51.624;5.886;2024-03-22T05:58:33;101645.66;;;20.99;46.34
62710;BME280;48770;51.624;5.886;2024-03-22T06:00:58;101653.53;;;20.97;46.36
62710;BME280;48770;51.624;5.886;2024-03-22T06:03:23;101647.63;;;20.99;46.53
62710;BME280;48770;51.624;5.886;2024-03-22T06:05:49;101644.03;;;20.98;46.41
62710;BME280;48770;51.624;5.886;2024-03-22T06:08:15;101647.97;;;20.97;46.39
62710;BME280;48770;51.624;5.886;2024-03-22T06:10:45;101639.13;;;20.95;46.20
62710;BME280;48770;51.624;5.886;2024-03-22T06:13:10;101639.13;;;20.95;46.13
62710;BME280;48770;51.624;5.886;2024-03-22T06:15:35;101649.44;;;20.94;46.11
62710;BME280;48770;51.624;5.886;2024-03-22T06:18:01;101647.34;;;20.91;46.57
62710;BME280;48770;51.624;5.886;2024-03-22T06:20:26;101650.59;;;20.93;46.47
62710;BME280;48770;51.624;5.886;2024-03-22T06:22:52;101646.19;;;20.92;46.36
62710;BME280;48770;51.624;5.886;2024-03-22T06:25:17;101646.66;;;20.94;46.38
62710;BME280;48770;51.624;5.886;2024-03-22T06:27:43;101650.59;;;20.93;46.11
62710;BME280;48770;51.624;5.886;2024-03-22T06:30:08;101649.44;;;20.94;46.37
62710;BME280;48770;51.624;5.886;2024-03-22T06:32:34;101644.22;;;20.93;46.45
62710;BME280;48770;51.624;5.886;2024-03-22T06:34:59;101643.06;;;20.94;46.05
62710;BME280;48770;51.624;5.886;2024-03-22T06:37:24;101643.75;;;20.91;45.91
62710;BME280;48770;51.624;5.886;2024-03-22T06:39:50;101642.59;;;20.92;46.06
62710;BME280;48770;51.624;5.886;2024-03-22T06:42:15;101640.97;;;20.91;46.24
62710;BME280;48770;51.624;5.886;2024-03-22T06:44:40;101635.75;;;20.89;46.32
62710;BME280;48770;51.624;5.886;2024-03-22T06:47:05;101637.84;;;20.92;46.32
62710;BME280;48770;51.624;5.886;2024-03-22T06:49:31;101641.44;;;20.93;46.21
62710;BME280;48770;51.624;5.886;2024-03-22T06:51:56;101643.75;;;20.91;46.33
62710;BME280;48770;51.624;5.886;2024-03-22T06:54:21;101647.00;;;20.93;46.24
62710;BME280;48770;51.624;5.886;2024-03-22T06:56:47;101642.94;;;20.90;46.06
62710;BME280;48770;51.624;5.886;2024-03-22T06:59:12;101637.69;;;20.89;46.36
62710;BME280;48770;51.624;5.886;2024-03-22T07:01:38;101633.78;;;20.90;46.21
62710;BME280;48770;51.624;5.886;2024-03-22T07:04:03;101630.66;;;20.91;46.15
62710;BME280;48770;51.624;5.886;2024-03-22T07:06:28;101629.03;;;20.90;46.40
62710;BME280;48770;51.624;5.886;2024-03-22T07:08:54;101631.81;;;20.90;46.27
62710;BME280;48770;51.624;5.886;2024-03-22T07:11:19;101622.31;;;20.91;46.00
62710;BME280;48770;51.624;5.886;2024-03-22T07:13:44;101625.56;;;20.93;45.98
62710;BME280;48770;51.624;5.886;2024-03-22T07:16:10;101628.69;;;20.92;45.97
62710;BME280;48770;51.624;5.886;2024-03-22T07:18:35;101632.63;;;20.91;46.23
62710;BME280;48770;51.624;5.886;2024-03-22T07:21:01;101635.41;;;20.91;46.09
62710;BME280;48770;51.624;5.886;2024-03-22T07:23:28;101642.59;;;20.92;45.86
62710;BME280;48770;51.624;5.886;2024-03-22T07:25:54;101631.81;;;20.90;45.99
62710;BME280;48770;51.624;5.886;2024-03-22T07:28:19;101636.22;;;20.91;46.28
62710;BME280;48770;51.624;5.886;2024-03-22T07:30:45;101624.63;;;20.89;46.31
62710;BME280;48770;51.624;5.886;2024-03-22T07:33:10;101622.66;;;20.90;46.11
62710;BME280;48770;51.624;5.886;2024-03-22T07:35:38;101630.50;;;20.88;46.31
62710;BME280;48770;51.624;5.886;2024-03-22T07:38:03;101632.97;;;20.89;46.27
62710;BME280;48770;51.624;5.886;2024-03-22T07:40:29;101632.47;;;20.87;46.19
62710;BME280;48770;51.624;5.886;2024-03-22T07:42:54;101632.16;;;20.89;46.16
62710;BME280;48770;51.624;5.886;2024-03-22T07:45:20;101623.81;;;20.89;45.91
62710;BME280;48770;51.624;5.886;2024-03-22T07:47:45;101628.53;;;20.88;46.03
62710;BME280;48770;51.624;5.886;2024-03-22T07:50:10;101624.63;;;20.89;46.20
62710;BME280;48770;51.624;5.886;2024-03-22T07:52:36;101623.81;;;20.89;46.01
62710;BME280;48770;51.624;5.886;2024-03-22T07:55:01;101618.72;;;20.91;45.88
62710;BME280;48770;51.624;5.886;2024-03-22T07:57:28;101624.28;;;20.91;45.58
62710;BME280;48770;51.624;5.886;2024-03-22T07:59:56;101627.06;;;20.91;46.17
62710;BME280;48770;51.624;5.886;2024-03-22T08:02:21;101631.00;;;20.90;46.08
62710;BME280;48770;51.624;5.886;2024-03-22T08:04:47;101631.00;;;20.90;46.16
62710;BME280;48770;51.624;5.886;2024-03-22T08:07:12;101630.19;;;20.89;46.20
62710;BME280;48770;51.624;5.886;2024-03-22T08:09:38;101633.28;;;20.88;46.19
62710;BME280;48770;51.624;5.886;2024-03-22T08:12:03;101623.00;;;20.88;45.84
62710;BME280;48770;51.624;5.886;2024-03-22T08:14:29;101622.16;;;20.88;45.94
62710;BME280;48770;51.624;5.886;2024-03-22T08:16:54;101632.16;;;20.89;46.17
62710;BME280;48770;51.624;5.886;2024-03-22T08:19:19;101626.91;;;20.87;45.80
62710;BME280;48770;51.624;5.886;2024-03-22T08:21:44;101633.28;;;20.88;46.11
62710;BME280;48770;51.624;5.886;2024-03-22T08:24:10;101624.94;;;20.88;46.09
62710;BME280;48770;51.624;5.886;2024-03-22T08:26:35;101618.56;;;20.87;45.98
62710;BME280;48770;51.624;5.886;2024-03-22T08:29:00;101627.41;;;20.89;46.03
62710;BME280;48770;51.624;5.886;2024-03-22T08:31:26;101624.94;;;20.88;45.82
62710;BME280;48770;51.624;5.886;2024-03-22T08:33:53;101629.38;;;20.89;45.75
62710;BME280;48770;51.624;5.886;2024-03-22T08:36:21;101628.53;;;20.88;46.11
62710;BME280;48770;51.624;5.886;2024-03-22T08:38:46;101622.16;;;20.88;45.62
62710;BME280;48770;51.624;5.886;2024-03-22T08:41:11;101619.41;;;20.88;46.02
62710;BME280;48770;51.624;5.886;2024-03-22T08:43:37;101620.53;;;20.87;45.89
62710;BME280;48770;51.624;5.886;2024-03-22T08:46:02;101625.28;;;20.86;45.89
62710;BME280;48770;51.624;5.886;2024-03-22T08:48:28;101609.44;;;20.87;45.96
62710;BME280;48770;51.624;5.886;2024-03-22T08:50:53;101613.34;;;20.86;46.08
62710;BME280;48770;51.624;5.886;2024-03-22T08:53:19;101616.47;;;20.84;45.97
62710;BME280;48770;51.624;5.886;2024-03-22T08:55:48;101618.91;;;20.86;45.94
62710;BME280;48770;51.624;5.886;2024-03-22T08:58:14;101607.78;;;20.86;46.07
62710;BME280;48770;51.624;5.886;2024-03-22T09:00:41;101603.06;;;20.86;45.76
62710;BME280;48770;51.624;5.886;2024-03-22T09:03:06;101603.53;;;20.88;45.93
62710;BME280;48770;51.624;5.886;2024-03-22T09:05:32;101603.88;;;20.87;45.81
62710;BME280;48770;51.624;5.886;2024-03-22T09:07:58;101607.78;;;20.86;45.61
62710;BME280;48770;51.624;5.886;2024-03-22T09:10:24;101606.97;;;20.85;46.12
62710;BME280;48770;51.624;5.886;2024-03-22T09:12:49;101602.25;;;20.86;45.68
62710;BME280;48770;51.624;5.886;2024-03-22T09:15:14;101603.06;;;20.86;45.95
62710;BME280;48770;51.624;5.886;2024-03-22T09:17:40;101601.09;;;20.87;45.86
62710;BME280;48770;51.624;5.886;2024-03-22T09:20:06;101604.19;;;20.85;45.86
62710;BME280;48770;51.624;5.886;2024-03-22T09:22:33;101600.59;;;20.85;46.04
62710;BME280;48770;51.624;5.886;2024-03-22T09:24:58;101602.25;;;20.86;45.74
62710;BME280;48770;51.624;5.886;2024-03-22T09:27:24;101606.97;;;20.85;46.14
62710;BME280;48770;51.624;5.886;2024-03-22T09:29:49;101604.53;;;20.84;45.95
62710;BME280;48770;51.624;5.886;2024-03-22T09:32:14;101600.94;;;20.83;45.90
62710;BME280;48770;51.624;5.886;2024-03-22T09:34:40;101594.22;;;20.84;45.82
62710;BME280;48770;51.624;5.886;2024-03-22T09:37:05;101585.06;;;20.84;45.80
62710;BME280;48770;51.624;5.886;2024-03-22T09:39:31;101593.41;;;20.84;45.81
62710;BME280;48770;51.624;5.886;2024-03-22T09:41:58;101594.22;;;20.84;45.83
62710;BME280;48770;51.624;5.886;2024-03-22T09:44:27;101588.19;;;20.82;45.85
62710;BME280;48770;51.624;5.886;2024-03-22T09:46:52;101587.03;;;20.83;45.91
62710;BME280;48770;51.624;5.886;2024-03-22T09:49:18;101590.31;;;20.85;45.63
62710;BME280;48770;51.624;5.886;2024-03-22T09:51:44;101589.50;;;20.85;46.09
62710;BME280;48770;51.624;5.886;2024-03-22T09:54:10;101583.25;;;20.88;47.00
62710;BME280;48770;51.624;5.886;2024-03-22T09:56:38;101568.22;;;20.89;47.40
62710;BME280;48770;51.624;5.886;2024-03-22T09:59:04;101579.69;;;20.79;47.50
62710;BME280;48770;51.624;5.886;2024-03-22T10:01:29;101579.53;;;20.75;47.52
62710;BME280;48770;51.624;5.886;2024-03-22T10:03:56;101570.72;;;20.73;47.14
62710;BME280;48770;51.624;5.886;2024-03-22T10:06:22;101571.41;;;20.70;47.27
62710;BME280;48770;51.624;5.886;2024-03-22T10:08:48;101568.94;;;20.69;46.85
62710;BME280;48770;51.624;5.886;2024-03-22T10:11:13;101570.59;;;20.70;47.08
62710;BME280;48770;51.624;5.886;2024-03-22T10:13:38;101575.66;;;20.68;46.85
62710;BME280;48770;51.624;5.886;2024-03-22T10:16:04;101578.44;;;20.68;46.51
62710;BME280;48770;51.624;5.886;2024-03-22T10:18:32;101576.00;;;20.66;46.41
62710;BME280;48770;51.624;5.886;2024-03-22T10:21:01;101562.44;;;20.65;46.62
62710;BME280;48770;51.624;5.886;2024-03-22T10:23:27;101570.28;;;20.62;46.69
62710;BME280;48770;51.624;5.886;2024-03-22T10:25:53;101558.69;;;20.60;46.53
62710;BME280;48770;51.624;5.886;2024-03-22T10:28:19;101565.41;;;20.59;46.25
62710;BME280;48770;51.624;5.886;2024-03-22T10:30:44;101562.63;;;20.59;46.22
62710;BME280;48770;51.624;5.886;2024-03-22T10:33:10;101557.41;;;20.58;46.31
62710;BME280;48770;51.624;5.886;2024-03-22T10:35:36;101559.84;;;20.59;46.15
62710;BME280;48770;51.624;5.886;2024-03-22T10:38:02;101552.66;;;20.58;46.10
62710;BME280;48770;51.624;5.886;2024-03-22T10:40:28;101561.00;;;20.58;45.79
62710;BME280;48770;51.624;5.886;2024-03-22T10:42:53;101558.22;;;20.58;46.08
62710;BME280;48770;51.624;5.886;2024-03-22T10:45:19;101564.41;;;20.55;45.97
62710;BME280;48770;51.624;5.886;2024-03-22T10:47:48;101562.78;;;20.54;46.08
62710;BME280;48770;51.624;5.886;2024-03-22T10:50:15;101561.16;;;20.53;46.21
62710;BME280;48770;51.624;5.886;2024-03-22T10:55:18;101556.91;;;20.56;45.97
62710;BME280;48770;51.624;5.886;2024-03-22T10:57:45;101555.78;;;20.57;46.09
62710;BME280;48770;51.624;5.886;2024-03-22T11:00:10;101556.91;;;20.56;45.78
62710;BME280;48770;51.624;5.886;2024-03-22T11:02:36;101553.31;;;20.55;46.12
62710;BME280;48770;51.624;5.886;2024-03-22T11:05:05;101546.13;;;20.54;46.22
62710;BME280;48770;51.624;5.886;2024-03-22T11:07:32;101548.41;;;20.52;45.91
62710;BME280;48770;51.624;5.886;2024-03-22T11:10:00;101548.06;;;20.54;45.86
62710;BME280;48770;51.624;5.886;2024-03-22T11:12:26;101545.81;;;20.56;45.85
62710;BME280;48770;51.624;5.886;2024-03-22T11:14:55;101548.59;;;20.56;46.20
62710;BME280;48770;51.624;5.886;2024-03-22T11:17:20;101543.03;;;20.56;45.74
62710;BME280;48770;51.624;5.886;2024-03-22T11:19:52;101544.34;;;20.50;45.44
62710;BME280;48770;51.624;5.886;2024-03-22T11:22:18;101549.09;;;20.49;45.84
62710;BME280;48770;51.624;5.886;2024-03-22T11:24:43;101544.00;;;20.51;45.96
62710;BME280;48770;51.624;5.886;2024-03-22T11:27:10;101539.59;;;20.50;45.89
62710;BME280;48770;51.624;5.886;2024-03-22T11:29:39;101529.31;;;20.51;45.89
62710;BME280;48770;51.624;5.886;2024-03-22T11:32:07;101527.66;;;20.50;46.56
62710;BME280;48770;51.624;5.886;2024-03-22T11:34:37;101539.13;;;20.48;46.41
62710;BME280;48770;51.624;5.886;2024-03-22T11:37:04;101543.53;;;20.49;46.37
62710;BME280;48770;51.624;5.886;2024-03-22T11:39:32;101546.97;;;20.46;46.48
62710;BME280;48770;51.624;5.886;2024-03-22T11:41:57;101547.44;;;20.48;46.47
62710;BME280;48770;51.624;5.886;2024-03-22T11:44:23;101558.22;;;20.50;46.34
62710;BME280;48770;51.624;5.886;2024-03-22T11:46:51;101553.50;;;20.50;46.10
62710;BME280;48770;51.624;5.886;2024-03-22T11:49:17;101543.03;;;20.47;46.33
62710;BME280;48770;51.624;5.886;2024-03-22T11:51:42;101552.06;;;20.44;46.58
62710;BME280;48770;51.624;5.886;2024-03-22T11:54:08;101549.75;;;20.46;46.45
62710;BME280;48770;51.624;5.886;2024-03-22T11:56:35;101552.88;;;20.45;46.63
62710;BME280;48770;51.624;5.886;2024-03-22T11:59:00;101541.28;;;20.43;46.39
62710;BME280;48770;51.624;5.886;2024-03-22T12:01:27;101545.19;;;20.42;46.18
62710;BME280;48770;51.624;5.886;2024-03-22T12:03:53;101538.31;;;20.39;46.19
62710;BME280;48770;51.624;5.886;2024-03-22T12:06:19;101527.22;;;20.39;46.26
62710;BME280;48770;51.624;5.886;2024-03-22T12:08:47;101529.16;;;20.39;46.07
62710;BME280;48770;51.624;5.886;2024-03-22T12:11:13;101524.75;;;20.38;45.97
62710;BME280;48770;51.624;5.886;2024-03-22T12:13:39;101514.66;;;20.42;46.41
62710;BME280;48770;51.624;5.886;2024-03-22T12:16:05;101503.69;;;20.45;46.65
62710;BME280;48770;51.624;5.886;2024-03-22T12:18:31;101505.63;;;20.45;47.27
62710;BME280;48770;51.624;5.886;2024-03-22T12:20:56;101502.88;;;20.45;47.19
62710;BME280;48770;51.624;5.886;2024-03-22T12:23:22;101499.75;;;20.46;47.35
62710;BME280;48770;51.624;5.886;2024-03-22T12:25:49;101492.34;;;20.59;46.72
62710;BME280;48770;51.624;5.886;2024-03-22T12:28:15;101495.47;;;20.57;46.41
62710;BME280;48770;51.624;5.886;2024-03-22T12:30:40;101478.59;;;20.62;46.20
62710;BME280;48770;51.624;5.886;2024-03-22T12:33:06;101482.28;;;20.75;46.34
62710;BME280;48770;51.624;5.886;2024-03-22T12:35:35;101474.84;;;20.88;45.93
62710;BME280;48770;51.624;5.886;2024-03-22T12:38:00;101460.53;;;20.98;45.59
62710;BME280;48770;51.624;5.886;2024-03-22T12:40:26;101467.19;;;21.06;45.15
62710;BME280;48770;51.624;5.886;2024-03-22T12:42:52;101465.03;;;21.11;45.00
62710;BME280;48770;51.624;5.886;2024-03-22T12:45:18;101460.16;;;21.08;45.20